sensor_id;sensor_type;location;lat;lon;timestamp;temperature;humidity
1614;DHT22;800;48.824;9.346;2022-09-20T00:01:18;16.20;64.70
1614;DHT22;800;48.824;9.346;2022-09-20T00:03:49;16.20;64.60
1614;DHT22;800;48.824;9.346;2022-09-20T00:06:21;16.20;64.50
1614;DHT22;800;48.824;9.346;2022-09-20T00:08:47;16.20;64.60
1614;DHT22;800;48.824;9.346;2022-09-20T00:11:16;16.20;64.50
1614;DHT22;800;48.824;9.346;2022-09-20T00:13:44;16.20;64.50
1614;DHT22;800;48.824;9.346;2022-09-20T00:16:16;16.20;64.30
1614;DHT22;800;48.824;9.346;2022-09-20T00:18:42;16.20;64.30
1614;DHT22;800;48.824;9.346;2022-09-20T00:21:15;16.20;64.30
1614;DHT22;800;48.824;9.346;2022-09-20T00:23:41;16.20;64.40
1614;DHT22;800;48.824;9.346;2022-09-20T00:26:07;16.20;64.40
1614;DHT22;800;48.824;9.346;2022-09-20T00:28:32;16.20;64.10
1614;DHT22;800;48.824;9.346;2022-09-20T00:30:59;16.20;64.30
1614;DHT22;800;48.824;9.346;2022-09-20T00:33:25;16.20;64.10
1614;DHT22;800;48.824;9.346;2022-09-20T00:36:15;16.20;64.00
1614;DHT22;800;48.824;9.346;2022-09-20T00:38:41;16.10;63.70
1614;DHT22;800;48.824;9.346;2022-09-20T00:41:07;16.10;63.80
1614;DHT22;800;48.824;9.346;2022-09-20T00:43:44;16.10;63.80
1614;DHT22;800;48.824;9.346;2022-09-20T00:46:42;16.10;63.80
1614;DHT22;800;48.824;9.346;2022-09-20T00:49:20;16.10;63.70
1614;DHT22;800;48.824;9.346;2022-09-20T00:51:54;16.10;63.70
1614;DHT22;800;48.824;9.346;2022-09-20T00:54:22;16.10;63.50
1614;DHT22;800;48.824;9.346;2022-09-20T00:56:48;16.10;63.40
1614;DHT22;800;48.824;9.346;2022-09-20T00:59:24;16.10;63.50
1614;DHT22;800;48.824;9.346;2022-09-20T01:01:55;16.10;63.60
1614;DHT22;800;48.824;9.346;2022-09-20T01:04:24;16.10;63.50
1614;DHT22;800;48.824;9.346;2022-09-20T01:06:53;16.00;63.50
1614;DHT22;800;48.824;9.346;2022-09-20T01:09:20;16.00;63.60
1614;DHT22;800;48.824;9.346;2022-09-20T01:11:46;16.00;63.80
1614;DHT22;800;48.824;9.346;2022-09-20T01:14:14;16.00;63.80
1614;DHT22;800;48.824;9.346;2022-09-20T01:16:41;16.00;63.80
1614;DHT22;800;48.824;9.346;2022-09-20T01:19:27;16.00;63.90
1614;DHT22;800;48.824;9.346;2022-09-20T01:21:54;15.90;64.00
1614;DHT22;800;48.824;9.346;2022-09-20T01:24:36;15.90;63.90
1614;DHT22;800;48.824;9.346;2022-09-20T01:32:11;16.00;64.30
1614;DHT22;800;48.824;9.346;2022-09-20T01:34:46;16.00;64.40
1614;DHT22;800;48.824;9.346;2022-09-20T01:40:05;16.00;64.40
1614;DHT22;800;48.824;9.346;2022-09-20T01:42:43;16.00;64.50
1614;DHT22;800;48.824;9.346;2022-09-20T01:45:26;15.90;64.50
1614;DHT22;800;48.824;9.346;2022-09-20T01:56:05;15.80;65.30
1614;DHT22;800;48.824;9.346;2022-09-20T02:04:22;15.80;65.00
1614;DHT22;800;48.824;9.346;2022-09-20T02:12:52;15.90;64.90
1614;DHT22;800;48.824;9.346;2022-09-20T02:23:50;15.90;64.40
1614;DHT22;800;48.824;9.346;2022-09-20T02:27:01;15.90;64.40
1614;DHT22;800;48.824;9.346;2022-09-20T02:51:30;16.00;64.90
1614;DHT22;800;48.824;9.346;2022-09-20T02:54:16;16.00;64.80
1614;DHT22;800;48.824;9.346;2022-09-20T02:57:16;16.00;64.70
1614;DHT22;800;48.824;9.346;2022-09-20T02:59:52;16.00;64.80
1614;DHT22;800;48.824;9.346;2022-09-20T03:10:51;16.00;64.50
1614;DHT22;800;48.824;9.346;2022-09-20T03:13:47;16.00;64.40
1614;DHT22;800;48.824;9.346;2022-09-20T03:27:41;15.90;64.70
1614;DHT22;800;48.824;9.346;2022-09-20T03:41:17;15.90;64.90
1614;DHT22;800;48.824;9.346;2022-09-20T03:46:46;15.90;64.60
1614;DHT22;800;48.824;9.346;2022-09-20T04:11:27;15.90;65.10
1614;DHT22;800;48.824;9.346;2022-09-20T04:14:24;15.90;65.20
1614;DHT22;800;48.824;9.346;2022-09-20T04:17:03;15.90;65.10
1614;DHT22;800;48.824;9.346;2022-09-20T04:19:37;16.00;65.00
1614;DHT22;800;48.824;9.346;2022-09-20T04:22:06;16.00;64.80
1614;DHT22;800;48.824;9.346;2022-09-20T04:25:03;16.00;64.80
1614;DHT22;800;48.824;9.346;2022-09-20T04:27:39;16.00;64.80
1614;DHT22;800;48.824;9.346;2022-09-20T04:30:26;16.00;65.00
1614;DHT22;800;48.824;9.346;2022-09-20T04:33:24;16.00;65.30
1614;DHT22;800;48.824;9.346;2022-09-20T04:42:23;16.00;64.40
1614;DHT22;800;48.824;9.346;2022-09-20T04:48:14;15.90;62.70
1614;DHT22;800;48.824;9.346;2022-09-20T05:05:09;16.00;63.40
1614;DHT22;800;48.824;9.346;2022-09-20T05:15:56;16.10;63.90
1614;DHT22;800;48.824;9.346;2022-09-20T05:21:45;16.40;65.10
1614;DHT22;800;48.824;9.346;2022-09-20T05:35:25;16.80;60.30
1614;DHT22;800;48.824;9.346;2022-09-20T05:43:32;16.90;59.70
1614;DHT22;800;48.824;9.346;2022-09-20T05:49:00;16.90;58.90
1614;DHT22;800;48.824;9.346;2022-09-20T05:52:06;16.90;59.20
1614;DHT22;800;48.824;9.346;2022-09-20T05:54:46;16.90;59.20
1614;DHT22;800;48.824;9.346;2022-09-20T06:00:14;16.80;58.90
1614;DHT22;800;48.824;9.346;2022-09-20T06:03:12;16.70;59.00
1614;DHT22;800;48.824;9.346;2022-09-20T06:09:18;16.70;59.50
1614;DHT22;800;48.824;9.346;2022-09-20T06:15:10;16.60;60.60
1614;DHT22;800;48.824;9.346;2022-09-20T06:17:44;16.50;60.00
1614;DHT22;800;48.824;9.346;2022-09-20T06:23:02;16.50;60.40
1614;DHT22;800;48.824;9.346;2022-09-20T06:28:13;16.50;61.00
1614;DHT22;800;48.824;9.346;2022-09-20T06:30:48;16.60;60.00
1614;DHT22;800;48.824;9.346;2022-09-20T06:33:16;16.70;60.10
1614;DHT22;800;48.824;9.346;2022-09-20T06:38:42;16.90;60.00
1614;DHT22;800;48.824;9.346;2022-09-20T06:41:31;16.90;59.70
1614;DHT22;800;48.824;9.346;2022-09-20T06:44:00;17.00;59.20
1614;DHT22;800;48.824;9.346;2022-09-20T06:46:30;17.00;58.70
1614;DHT22;800;48.824;9.346;2022-09-20T06:48:56;17.10;58.50
1614;DHT22;800;48.824;9.346;2022-09-20T06:51:24;17.10;58.10
1614;DHT22;800;48.824;9.346;2022-09-20T06:53:51;17.20;58.00
1614;DHT22;800;48.824;9.346;2022-09-20T06:56:21;17.10;57.70
1614;DHT22;800;48.824;9.346;2022-09-20T06:58:47;17.00;57.70
1614;DHT22;800;48.824;9.346;2022-09-20T07:01:13;16.90;58.00
1614;DHT22;800;48.824;9.346;2022-09-20T07:03:40;16.90;58.10
1614;DHT22;800;48.824;9.346;2022-09-20T07:06:06;16.90;57.90
1614;DHT22;800;48.824;9.346;2022-09-20T07:08:31;16.90;58.20
1614;DHT22;800;48.824;9.346;2022-09-20T07:11:03;16.90;58.30
1614;DHT22;800;48.824;9.346;2022-09-20T07:13:28;17.00;58.40
1614;DHT22;800;48.824;9.346;2022-09-20T07:16:01;17.00;58.40
1614;DHT22;800;48.824;9.346;2022-09-20T07:18:28;17.20;58.50
1614;DHT22;800;48.824;9.346;2022-09-20T07:20:53;17.30;58.10
1614;DHT22;800;48.824;9.346;2022-09-20T07:23:26;17.20;58.00
1614;DHT22;800;48.824;9.346;2022-09-20T07:25:53;17.30;58.10
1614;DHT22;800;48.824;9.346;2022-09-20T07:28:19;17.20;57.90
1614;DHT22;800;48.824;9.346;2022-09-20T07:30:45;17.30;58.10
1614;DHT22;800;48.824;9.346;2022-09-20T07:33:12;17.40;58.10
1614;DHT22;800;48.824;9.346;2022-09-20T07:35:44;17.50;58.00
1614;DHT22;800;48.824;9.346;2022-09-20T07:38:11;17.40;57.60
1614;DHT22;800;48.824;9.346;2022-09-20T07:40:36;17.50;57.70
1614;DHT22;800;48.824;9.346;2022-09-20T07:43:02;17.50;57.40
1614;DHT22;800;48.824;9.346;2022-09-20T07:45:28;17.60;57.90
1614;DHT22;800;48.824;9.346;2022-09-20T07:47:55;17.60;57.40
1614;DHT22;800;48.824;9.346;2022-09-20T07:50:21;17.70;57.40
1614;DHT22;800;48.824;9.346;2022-09-20T07:52:46;17.70;57.60
1614;DHT22;800;48.824;9.346;2022-09-20T07:55:12;17.90;58.00
1614;DHT22;800;48.824;9.346;2022-09-20T07:57:38;18.00;57.30
1614;DHT22;800;48.824;9.346;2022-09-20T08:00:06;18.10;56.70
1614;DHT22;800;48.824;9.346;2022-09-20T08:02:32;18.20;56.70
1614;DHT22;800;48.824;9.346;2022-09-20T08:04:58;18.20;56.60
1614;DHT22;800;48.824;9.346;2022-09-20T08:07:23;18.30;57.70
1614;DHT22;800;48.824;9.346;2022-09-20T08:09:49;18.50;57.30
1614;DHT22;800;48.824;9.346;2022-09-20T08:12:15;18.60;56.70
1614;DHT22;800;48.824;9.346;2022-09-20T08:14:41;18.70;56.80
1614;DHT22;800;48.824;9.346;2022-09-20T08:17:08;18.90;56.70
1614;DHT22;800;48.824;9.346;2022-09-20T08:19:35;19.20;54.20
1614;DHT22;800;48.824;9.346;2022-09-20T08:22:01;19.40;53.00
1614;DHT22;800;48.824;9.346;2022-09-20T08:24:27;19.40;52.90
1614;DHT22;800;48.824;9.346;2022-09-20T08:26:52;19.60;53.20
1614;DHT22;800;48.824;9.346;2022-09-20T08:29:18;19.40;52.20
1614;DHT22;800;48.824;9.346;2022-09-20T08:31:43;19.40;52.20
1614;DHT22;800;48.824;9.346;2022-09-20T08:34:11;19.10;52.10
1614;DHT22;800;48.824;9.346;2022-09-20T08:36:41;19.20;52.30
1614;DHT22;800;48.824;9.346;2022-09-20T08:39:08;19.20;52.60
1614;DHT22;800;48.824;9.346;2022-09-20T08:41:56;19.20;53.30
1614;DHT22;800;48.824;9.346;2022-09-20T08:44:30;19.30;53.70
1614;DHT22;800;48.824;9.346;2022-09-20T08:49:42;19.60;51.10
1614;DHT22;800;48.824;9.346;2022-09-20T08:52:15;19.70;51.70
1614;DHT22;800;48.824;9.346;2022-09-20T08:54:42;20.00;52.20
1614;DHT22;800;48.824;9.346;2022-09-20T08:57:15;20.20;49.10
1614;DHT22;800;48.824;9.346;2022-09-20T08:59:41;20.30;48.20
1614;DHT22;800;48.824;9.346;2022-09-20T09:02:16;20.30;48.40
1614;DHT22;800;48.824;9.346;2022-09-20T09:04:43;20.30;49.10
1614;DHT22;800;48.824;9.346;2022-09-20T09:07:12;20.30;49.90
1614;DHT22;800;48.824;9.346;2022-09-20T09:09:43;20.30;50.00
1614;DHT22;800;48.824;9.346;2022-09-20T09:12:24;20.30;49.00
1614;DHT22;800;48.824;9.346;2022-09-20T09:14:58;20.20;48.80
1614;DHT22;800;48.824;9.346;2022-09-20T09:17:26;20.10;48.50
1614;DHT22;800;48.824;9.346;2022-09-20T09:19:56;20.10;47.90
1614;DHT22;800;48.824;9.346;2022-09-20T09:22:38;20.20;47.00
1614;DHT22;800;48.824;9.346;2022-09-20T09:27:49;20.40;47.30
1614;DHT22;800;48.824;9.346;2022-09-20T09:30:20;20.40;46.60
1614;DHT22;800;48.824;9.346;2022-09-20T09:32:47;20.40;45.60
1614;DHT22;800;48.824;9.346;2022-09-20T09:35:30;20.50;46.00
1614;DHT22;800;48.824;9.346;2022-09-20T09:38:00;20.50;46.40
1614;DHT22;800;48.824;9.346;2022-09-20T09:40:28;20.40;46.70
1614;DHT22;800;48.824;9.346;2022-09-20T09:43:00;20.40;46.70
1614;DHT22;800;48.824;9.346;2022-09-20T09:47:54;20.30;45.50
1614;DHT22;800;48.824;9.346;2022-09-20T09:50:29;20.30;45.40
1614;DHT22;800;48.824;9.346;2022-09-20T09:53:08;20.10;45.70
1614;DHT22;800;48.824;9.346;2022-09-20T10:16:07;19.90;44.60
1614;DHT22;800;48.824;9.346;2022-09-20T10:27:06;20.10;43.00
1614;DHT22;800;48.824;9.346;2022-09-20T10:29:38;20.00;43.80
1614;DHT22;800;48.824;9.346;2022-09-20T10:35:02;20.10;43.70
1614;DHT22;800;48.824;9.346;2022-09-20T10:43:37;20.30;43.00
1614;DHT22;800;48.824;9.346;2022-09-20T10:48:48;20.60;42.30
1614;DHT22;800;48.824;9.346;2022-09-20T10:57:03;21.10;41.00
1614;DHT22;800;48.824;9.346;2022-09-20T10:59:53;21.20;42.60
1614;DHT22;800;48.824;9.346;2022-09-20T11:13:04;21.80;45.50
1614;DHT22;800;48.824;9.346;2022-09-20T11:15:35;21.90;44.90
1614;DHT22;800;48.824;9.346;2022-09-20T11:21:15;22.00;41.40
1614;DHT22;800;48.824;9.346;2022-09-20T11:23:53;21.90;41.70
1614;DHT22;800;48.824;9.346;2022-09-20T11:26:44;21.60;41.10
1614;DHT22;800;48.824;9.346;2022-09-20T11:29:31;21.70;40.50
1614;DHT22;800;48.824;9.346;2022-09-20T11:32:05;21.80;42.40
1614;DHT22;800;48.824;9.346;2022-09-20T11:34:36;22.30;42.70
1614;DHT22;800;48.824;9.346;2022-09-20T11:37:04;22.50;40.00
1614;DHT22;800;48.824;9.346;2022-09-20T11:39:52;22.60;38.00
1614;DHT22;800;48.824;9.346;2022-09-20T11:42:27;22.50;39.70
1614;DHT22;800;48.824;9.346;2022-09-20T11:44:55;22.60;40.20
1614;DHT22;800;48.824;9.346;2022-09-20T11:58:14;23.30;37.70
1614;DHT22;800;48.824;9.346;2022-09-20T12:00:43;23.00;38.50
1614;DHT22;800;48.824;9.346;2022-09-20T12:03:39;22.70;38.00
1614;DHT22;800;48.824;9.346;2022-09-20T12:09:28;22.50;39.00
1614;DHT22;800;48.824;9.346;2022-09-20T12:11:55;22.50;39.30
1614;DHT22;800;48.824;9.346;2022-09-20T12:14:25;22.30;38.50
1614;DHT22;800;48.824;9.346;2022-09-20T12:16:52;22.10;38.40
1614;DHT22;800;48.824;9.346;2022-09-20T12:24:30;22.30;40.00
1614;DHT22;800;48.824;9.346;2022-09-20T12:29:51;22.10;40.10
1614;DHT22;800;48.824;9.346;2022-09-20T12:32:32;22.00;40.50
1614;DHT22;800;48.824;9.346;2022-09-20T12:34:58;22.00;41.40
1614;DHT22;800;48.824;9.346;2022-09-20T12:37:25;21.90;41.40
1614;DHT22;800;48.824;9.346;2022-09-20T12:39:53;21.70;40.20
1614;DHT22;800;48.824;9.346;2022-09-20T12:55:27;22.70;38.30
1614;DHT22;800;48.824;9.346;2022-09-20T13:03:28;22.90;37.60
1614;DHT22;800;48.824;9.346;2022-09-20T13:08:38;22.80;38.50
1614;DHT22;800;48.824;9.346;2022-09-20T13:11:22;22.80;39.80
1614;DHT22;800;48.824;9.346;2022-09-20T13:13:49;22.70;40.20
1614;DHT22;800;48.824;9.346;2022-09-20T13:19:20;22.70;41.30
1614;DHT22;800;48.824;9.346;2022-09-20T13:24:31;22.70;42.60
1614;DHT22;800;48.824;9.346;2022-09-20T13:27:05;22.70;42.70
1614;DHT22;800;48.824;9.346;2022-09-20T13:29:38;22.80;41.30
1614;DHT22;800;48.824;9.346;2022-09-20T13:32:23;22.80;41.00
1614;DHT22;800;48.824;9.346;2022-09-20T13:37:46;22.90;40.50
1614;DHT22;800;48.824;9.346;2022-09-20T13:42:48;23.10;41.00
1614;DHT22;800;48.824;9.346;2022-09-20T13:45:14;23.20;40.50
1614;DHT22;800;48.824;9.346;2022-09-20T13:47:42;23.30;38.30
1614;DHT22;800;48.824;9.346;2022-09-20T13:50:20;23.20;38.00
1614;DHT22;800;48.824;9.346;2022-09-20T13:52:53;23.20;38.10
1614;DHT22;800;48.824;9.346;2022-09-20T13:55:36;23.00;37.90
1614;DHT22;800;48.824;9.346;2022-09-20T13:58:05;23.10;38.00
1614;DHT22;800;48.824;9.346;2022-09-20T14:00:32;23.10;38.80
1614;DHT22;800;48.824;9.346;2022-09-20T14:03:00;23.00;38.40
1614;DHT22;800;48.824;9.346;2022-09-20T14:05:28;22.70;38.70
1614;DHT22;800;48.824;9.346;2022-09-20T14:07:55;22.70;38.80
1614;DHT22;800;48.824;9.346;2022-09-20T14:10:33;22.70;38.40
1614;DHT22;800;48.824;9.346;2022-09-20T14:13:00;22.60;38.00
1614;DHT22;800;48.824;9.346;2022-09-20T14:15:35;22.30;37.70
1614;DHT22;800;48.824;9.346;2022-09-20T14:18:02;22.40;38.00
1614;DHT22;800;48.824;9.346;2022-09-20T14:20:29;22.30;37.80
1614;DHT22;800;48.824;9.346;2022-09-20T14:22:55;22.20;37.80
1614;DHT22;800;48.824;9.346;2022-09-20T14:25:22;22.20;38.50
1614;DHT22;800;48.824;9.346;2022-09-20T14:28:15;22.10;38.50
1614;DHT22;800;48.824;9.346;2022-09-20T14:30:42;22.10;39.40
1614;DHT22;800;48.824;9.346;2022-09-20T14:33:15;22.10;39.50
1614;DHT22;800;48.824;9.346;2022-09-20T14:35:49;21.80;41.30
1614;DHT22;800;48.824;9.346;2022-09-20T14:38:17;21.20;42.80
1614;DHT22;800;48.824;9.346;2022-09-20T14:40:47;20.70;43.60
1614;DHT22;800;48.824;9.346;2022-09-20T14:43:32;20.50;44.30
1614;DHT22;800;48.824;9.346;2022-09-20T14:46:02;20.60;44.50
1614;DHT22;800;48.824;9.346;2022-09-20T14:48:33;20.80;44.60
1614;DHT22;800;48.824;9.346;2022-09-20T14:51:20;20.80;43.90
1614;DHT22;800;48.824;9.346;2022-09-20T14:56:47;20.70;43.70
1614;DHT22;800;48.824;9.346;2022-09-20T15:01:42;20.40;43.60
1614;DHT22;800;48.824;9.346;2022-09-20T15:04:18;20.40;44.30
1614;DHT22;800;48.824;9.346;2022-09-20T15:06:44;20.30;44.10
1614;DHT22;800;48.824;9.346;2022-09-20T15:09:11;20.30;44.10
1614;DHT22;800;48.824;9.346;2022-09-20T15:11:38;20.50;44.10
1614;DHT22;800;48.824;9.346;2022-09-20T15:14:05;20.60;43.90
1614;DHT22;800;48.824;9.346;2022-09-20T15:16:31;20.70;43.80
1614;DHT22;800;48.824;9.346;2022-09-20T15:18:57;20.80;43.60
1614;DHT22;800;48.824;9.346;2022-09-20T15:21:24;20.90;43.20
1614;DHT22;800;48.824;9.346;2022-09-20T15:23:49;20.90;43.00
1614;DHT22;800;48.824;9.346;2022-09-20T15:26:18;21.00;43.20
1614;DHT22;800;48.824;9.346;2022-09-20T15:28:44;20.90;43.00
1614;DHT22;800;48.824;9.346;2022-09-20T15:31:10;20.70;42.60
1614;DHT22;800;48.824;9.346;2022-09-20T15:33:37;20.80;42.70
1614;DHT22;800;48.824;9.346;2022-09-20T15:36:03;20.80;42.80
1614;DHT22;800;48.824;9.346;2022-09-20T15:38:29;20.80;42.60
1614;DHT22;800;48.824;9.346;2022-09-20T15:40:55;20.80;42.50
1614;DHT22;800;48.824;9.346;2022-09-20T15:43:22;20.70;41.90
1614;DHT22;800;48.824;9.346;2022-09-20T15:45:55;20.70;42.00
1614;DHT22;800;48.824;9.346;2022-09-20T15:48:24;20.80;41.50
1614;DHT22;800;48.824;9.346;2022-09-20T15:51:07;20.90;41.20
1614;DHT22;800;48.824;9.346;2022-09-20T15:53:35;21.10;41.00
1614;DHT22;800;48.824;9.346;2022-09-20T15:56:03;21.10;40.80
1614;DHT22;800;48.824;9.346;2022-09-20T15:58:31;21.20;40.40
1614;DHT22;800;48.824;9.346;2022-09-20T16:01:07;21.10;40.10
1614;DHT22;800;48.824;9.346;2022-09-20T16:03:34;20.90;40.40
1614;DHT22;800;48.824;9.346;2022-09-20T16:06:04;21.00;40.70
1614;DHT22;800;48.824;9.346;2022-09-20T16:08:31;21.20;40.40
1614;DHT22;800;48.824;9.346;2022-09-20T16:10:58;21.40;40.00
1614;DHT22;800;48.824;9.346;2022-09-20T16:13:24;21.50;40.40
1614;DHT22;800;48.824;9.346;2022-09-20T16:15:58;21.70;39.80
1614;DHT22;800;48.824;9.346;2022-09-20T16:18:25;21.70;38.60
1614;DHT22;800;48.824;9.346;2022-09-20T16:21:11;21.70;38.80
1614;DHT22;800;48.824;9.346;2022-09-20T16:23:40;21.80;39.10
1614;DHT22;800;48.824;9.346;2022-09-20T16:26:09;21.80;38.70
1614;DHT22;800;48.824;9.346;2022-09-20T16:28:38;21.90;38.70
1614;DHT22;800;48.824;9.346;2022-09-20T16:31:05;21.90;38.00
1614;DHT22;800;48.824;9.346;2022-09-20T16:33:31;21.90;37.40
1614;DHT22;800;48.824;9.346;2022-09-20T16:35:58;21.90;37.80
1614;DHT22;800;48.824;9.346;2022-09-20T16:38:24;21.60;38.00
1614;DHT22;800;48.824;9.346;2022-09-20T16:40:49;21.50;37.80
1614;DHT22;800;48.824;9.346;2022-09-20T16:43:20;21.40;38.20
1614;DHT22;800;48.824;9.346;2022-09-20T16:45:59;21.40;38.20
1614;DHT22;800;48.824;9.346;2022-09-20T16:48:25;21.30;38.40
1614;DHT22;800;48.824;9.346;2022-09-20T16:50:56;21.30;38.70
1614;DHT22;800;48.824;9.346;2022-09-20T16:53:25;21.20;38.80
1614;DHT22;800;48.824;9.346;2022-09-20T16:55:51;21.20;38.80
1614;DHT22;800;48.824;9.346;2022-09-20T16:58:27;21.10;38.90
1614;DHT22;800;48.824;9.346;2022-09-20T17:01:02;21.10;39.20
1614;DHT22;800;48.824;9.346;2022-09-20T17:03:28;21.00;39.40
1614;DHT22;800;48.824;9.346;2022-09-20T17:06:03;21.00;39.80
1614;DHT22;800;48.824;9.346;2022-09-20T17:08:29;20.90;40.20
1614;DHT22;800;48.824;9.346;2022-09-20T17:10:59;20.80;40.70
1614;DHT22;800;48.824;9.346;2022-09-20T17:13:25;20.90;40.80
1614;DHT22;800;48.824;9.346;2022-09-20T17:16:06;20.80;40.70
1614;DHT22;800;48.824;9.346;2022-09-20T17:18:32;20.80;40.80
1614;DHT22;800;48.824;9.346;2022-09-20T17:21:05;20.80;40.90
1614;DHT22;800;48.824;9.346;2022-09-20T17:23:32;20.80;41.20
1614;DHT22;800;48.824;9.346;2022-09-20T17:26:15;20.70;41.60
1614;DHT22;800;48.824;9.346;2022-09-20T17:28:43;20.70;42.00
1614;DHT22;800;48.824;9.346;2022-09-20T17:31:12;20.60;41.90
1614;DHT22;800;48.824;9.346;2022-09-20T17:33:38;20.60;42.00
1614;DHT22;800;48.824;9.346;2022-09-20T17:36:05;20.50;42.10
1614;DHT22;800;48.824;9.346;2022-09-20T17:38:33;20.50;42.30
1614;DHT22;800;48.824;9.346;2022-09-20T17:41:16;20.40;42.40
1614;DHT22;800;48.824;9.346;2022-09-20T17:43:43;20.30;42.70
1614;DHT22;800;48.824;9.346;2022-09-20T17:46:15;20.20;42.80
1614;DHT22;800;48.824;9.346;2022-09-20T17:48:43;20.20;43.10
1614;DHT22;800;48.824;9.346;2022-09-20T17:51:14;20.10;43.00
1614;DHT22;800;48.824;9.346;2022-09-20T17:53:40;20.10;43.20
1614;DHT22;800;48.824;9.346;2022-09-20T17:56:06;20.10;43.60
1614;DHT22;800;48.824;9.346;2022-09-20T17:58:35;20.10;44.00
1614;DHT22;800;48.824;9.346;2022-09-20T18:01:04;20.00;44.50
1614;DHT22;800;48.824;9.346;2022-09-20T18:03:37;19.90;44.80
1614;DHT22;800;48.824;9.346;2022-09-20T18:06:10;19.80;45.10
1614;DHT22;800;48.824;9.346;2022-09-20T18:08:36;19.80;45.40
1614;DHT22;800;48.824;9.346;2022-09-20T18:11:02;19.80;45.50
1614;DHT22;800;48.824;9.346;2022-09-20T18:13:27;19.70;45.70
1614;DHT22;800;48.824;9.346;2022-09-20T18:15:54;19.60;46.00
1614;DHT22;800;48.824;9.346;2022-09-20T18:18:20;19.50;46.10
1614;DHT22;800;48.824;9.346;2022-09-20T18:20:46;19.50;46.10
1614;DHT22;800;48.824;9.346;2022-09-20T18:23:12;19.40;46.50
1614;DHT22;800;48.824;9.346;2022-09-20T18:25:38;19.30;46.90
1614;DHT22;800;48.824;9.346;2022-09-20T18:28:22;19.30;47.10
1614;DHT22;800;48.824;9.346;2022-09-20T18:30:47;19.20;47.10
1614;DHT22;800;48.824;9.346;2022-09-20T18:33:22;19.10;47.30
1614;DHT22;800;48.824;9.346;2022-09-20T18:35:49;19.10;47.40
1614;DHT22;800;48.824;9.346;2022-09-20T18:38:14;19.00;47.50
1614;DHT22;800;48.824;9.346;2022-09-20T18:40:42;19.00;47.30
1614;DHT22;800;48.824;9.346;2022-09-20T18:43:08;18.90;47.30
1614;DHT22;800;48.824;9.346;2022-09-20T18:45:33;18.90;47.30
1614;DHT22;800;48.824;9.346;2022-09-20T18:47:59;18.80;47.20
1614;DHT22;800;48.824;9.346;2022-09-20T18:50:25;18.80;47.60
1614;DHT22;800;48.824;9.346;2022-09-20T18:52:51;18.80;47.60
1614;DHT22;800;48.824;9.346;2022-09-20T18:55:17;18.70;47.90
1614;DHT22;800;48.824;9.346;2022-09-20T18:57:43;18.60;48.40
1614;DHT22;800;48.824;9.346;2022-09-20T19:00:11;18.60;48.60
1614;DHT22;800;48.824;9.346;2022-09-20T19:05:33;18.50;49.00
1614;DHT22;800;48.824;9.346;2022-09-20T19:08:39;18.50;49.10
1614;DHT22;800;48.824;9.346;2022-09-20T19:11:07;18.40;49.00
1614;DHT22;800;48.824;9.346;2022-09-20T19:14:00;18.40;49.10
1614;DHT22;800;48.824;9.346;2022-09-20T19:16:32;18.30;49.30
1614;DHT22;800;48.824;9.346;2022-09-20T19:22:26;18.00;50.00
1614;DHT22;800;48.824;9.346;2022-09-20T19:27:35;17.90;50.30
1614;DHT22;800;48.824;9.346;2022-09-20T19:30:04;17.80;50.20
1614;DHT22;800;48.824;9.346;2022-09-20T19:32:30;17.70;50.20
1614;DHT22;800;48.824;9.346;2022-09-20T19:34:56;17.60;50.40
1614;DHT22;800;48.824;9.346;2022-09-20T19:37:34;17.50;50.60
1614;DHT22;800;48.824;9.346;2022-09-20T19:48:05;16.90;52.10
1614;DHT22;800;48.824;9.346;2022-09-20T19:50:42;16.90;52.30
1614;DHT22;800;48.824;9.346;2022-09-20T19:53:13;16.80;52.20
1614;DHT22;800;48.824;9.346;2022-09-20T19:55:44;16.80;52.30
1614;DHT22;800;48.824;9.346;2022-09-20T19:58:12;16.80;52.40
1614;DHT22;800;48.824;9.346;2022-09-20T20:00:38;16.70;52.40
1614;DHT22;800;48.824;9.346;2022-09-20T20:03:04;16.60;52.50
1614;DHT22;800;48.824;9.346;2022-09-20T20:05:30;16.60;52.60
1614;DHT22;800;48.824;9.346;2022-09-20T20:10:55;16.40;53.00
1614;DHT22;800;48.824;9.346;2022-09-20T20:13:44;16.20;53.30
1614;DHT22;800;48.824;9.346;2022-09-20T20:22:43;16.20;53.60
1614;DHT22;800;48.824;9.346;2022-09-20T20:25:41;16.20;53.80
1614;DHT22;800;48.824;9.346;2022-09-20T20:28:11;16.10;53.80
1614;DHT22;800;48.824;9.346;2022-09-20T20:30:37;16.10;53.60
1614;DHT22;800;48.824;9.346;2022-09-20T20:33:03;16.10;53.50
1614;DHT22;800;48.824;9.346;2022-09-20T20:35:30;16.10;53.50
1614;DHT22;800;48.824;9.346;2022-09-20T20:37:56;16.00;53.40
1614;DHT22;800;48.824;9.346;2022-09-20T20:40:22;16.00;53.50
1614;DHT22;800;48.824;9.346;2022-09-20T20:42:48;15.90;53.60
1614;DHT22;800;48.824;9.346;2022-09-20T20:45:14;15.80;53.80
1614;DHT22;800;48.824;9.346;2022-09-20T20:47:40;15.80;54.10
1614;DHT22;800;48.824;9.346;2022-09-20T20:50:06;15.70;54.10
1614;DHT22;800;48.824;9.346;2022-09-20T20:52:36;15.70;54.20
1614;DHT22;800;48.824;9.346;2022-09-20T20:55:02;15.80;54.10
1614;DHT22;800;48.824;9.346;2022-09-20T20:57:27;15.70;54.20
1614;DHT22;800;48.824;9.346;2022-09-20T20:59:54;15.70;54.20
1614;DHT22;800;48.824;9.346;2022-09-20T21:02:19;15.70;54.30
1614;DHT22;800;48.824;9.346;2022-09-20T21:04:45;15.50;54.60
1614;DHT22;800;48.824;9.346;2022-09-20T21:07:12;15.40;54.80
1614;DHT22;800;48.824;9.346;2022-09-20T21:09:37;15.40;55.00
1614;DHT22;800;48.824;9.346;2022-09-20T21:12:04;15.30;54.90
1614;DHT22;800;48.824;9.346;2022-09-20T21:14:30;15.30;55.10
1614;DHT22;800;48.824;9.346;2022-09-20T21:16:58;15.20;55.20
1614;DHT22;800;48.824;9.346;2022-09-20T21:19:23;15.20;55.40
1614;DHT22;800;48.824;9.346;2022-09-20T21:21:49;15.10;55.50
1614;DHT22;800;48.824;9.346;2022-09-20T21:24:15;15.00;55.80
1614;DHT22;800;48.824;9.346;2022-09-20T21:26:44;15.00;56.00
1614;DHT22;800;48.824;9.346;2022-09-20T21:29:13;14.90;56.30
1614;DHT22;800;48.824;9.346;2022-09-20T21:31:41;14.90;56.40
1614;DHT22;800;48.824;9.346;2022-09-20T21:34:08;14.90;56.40
1614;DHT22;800;48.824;9.346;2022-09-20T21:36:36;14.90;56.30
1614;DHT22;800;48.824;9.346;2022-09-20T21:39:02;14.90;56.20
1614;DHT22;800;48.824;9.346;2022-09-20T21:41:30;14.90;56.30
1614;DHT22;800;48.824;9.346;2022-09-20T21:44:00;14.70;56.50
1614;DHT22;800;48.824;9.346;2022-09-20T21:46:35;14.60;57.00
1614;DHT22;800;48.824;9.346;2022-09-20T21:49:02;14.50;57.30
1614;DHT22;800;48.824;9.346;2022-09-20T21:51:29;14.40;57.60
1614;DHT22;800;48.824;9.346;2022-09-20T21:53:55;14.40;57.90
1614;DHT22;800;48.824;9.346;2022-09-20T21:56:23;14.40;57.90
1614;DHT22;800;48.824;9.346;2022-09-20T21:58:49;14.40;57.90
1614;DHT22;800;48.824;9.346;2022-09-20T22:01:26;14.40;57.90
1614;DHT22;800;48.824;9.346;2022-09-20T22:03:54;14.40;58.10
1614;DHT22;800;48.824;9.346;2022-09-20T22:06:23;14.30;58.20
1614;DHT22;800;48.824;9.346;2022-09-20T22:08:55;14.30;58.20
1614;DHT22;800;48.824;9.346;2022-09-20T22:11:24;14.20;58.30
1614;DHT22;800;48.824;9.346;2022-09-20T22:13:51;14.10;58.50
1614;DHT22;800;48.824;9.346;2022-09-20T22:16:25;14.00;59.50
1614;DHT22;800;48.824;9.346;2022-09-20T22:18:52;13.90;58.90
1614;DHT22;800;48.824;9.346;2022-09-20T22:21:23;13.80;59.30
1614;DHT22;800;48.824;9.346;2022-09-20T22:23:51;13.40;60.20